Wetterdaten: Juli 2013
Datum Temp Feuchte Luftdruck Regen Wind Richtung Sonnenschein UV Solar Windben
01.07.2013 17,5 C 84 % 1015,7 hPa 0,4 l/m 2,6 km/h S 7,83 h 3,5 UV-I 408 W/m 7,7 km/h
02.07.2013 16,3 C 81 % 1013,2 hPa 0,0 l/m 0,4 km/h S-SW 7,67 h 3,3 UV-I 385 W/m 2,0 km/h
03.07.2013 17,3 C 90 % 1009,8 hPa 3,0 l/m 5,3 km/h S 0,42 h 1,8 UV-I 173 W/m 9,6 km/h
04.07.2013 18,1 C 81 % 1020,3 hPa 0,2 l/m 1,0 km/h W 5,42 h 3,0 UV-I 321 W/m 4,8 km/h
05.07.2013 18,4 C 84 % 1027,5 hPa 0,0 l/m 0,2 km/h N-NW 3,23 h 2,3 UV-I 234 W/m 0,8 km/h
06.07.2013 18,9 C 72 % 1029,2 hPa 0,0 l/m 0,8 km/h N-NO 11,00 h 3,2 UV-I 401 W/m 5,2 km/h
07.07.2013 19,6 C 72 % 1029,6 hPa 0,0 l/m 0,5 km/h N-NO 13,00 h 3,5 UV-I 470 W/m 3,6 km/h
08.07.2013 20,7 C 72 % 1028,7 hPa 0,0 l/m 1,8 km/h N-NO 12,92 h 3,2 UV-I 455 W/m 4,8 km/h
09.07.2013 20,8 C 68 % 1022,8 hPa 0,0 l/m 1,1 km/h N-NO 11,25 h 3,2 UV-I 424 W/m 6,8 km/h
10.07.2013 15,4 C 81 % 1019,3 hPa 0,0 l/m 3,0 km/h N-NW 6,33 h 2,1 UV-I 282 W/m 15,3 km/h
11.07.2013 14,3 C 86 % 1020,5 hPa 0,0 l/m 1,7 km/h NW 3,50 h 1,9 UV-I 228 W/m 4,0 km/h
12.07.2013 13,0 C 88 % 1021,6 hPa 0,0 l/m 2,2 km/h W-NW 5,33 h 1,9 UV-I 248 W/m 6,9 km/h
13.07.2013 14,4 C 84 % 1022,1 hPa 0,0 l/m 0,8 km/h N-NW 7,17 h 2,0 UV-I 290 W/m 3,6 km/h
14.07.2013 13,7 C 91 % 1022,5 hPa 0,2 l/m 0,3 km/h N-NW 0,08 h 1,4 UV-I 144 W/m 2,4 km/h
15.07.2013 16,6 C 79 % 1022,2 hPa 0,0 l/m 0,7 km/h N-NW 7,92 h 3,5 UV-I 392 W/m 3,6 km/h
16.07.2013 18,2 C 74 % 1022,5 hPa 0,0 l/m 0,6 km/h N-NW 10,42 h 3,0 UV-I 382 W/m 2,4 km/h
17.07.2013 20,6 C 73 % 1022,9 hPa 0,0 l/m 1,6 km/h N-NO 9,58 h 3,3 UV-I 402 W/m 7,2 km/h
18.07.2013 21,5 C 69 % 1022,9 hPa 0,0 l/m 1,9 km/h N-NO 10,17 h 3,4 UV-I 420 W/m 8,8 km/h
19.07.2013 19,8 C 72 % 1021,6 hPa 0,0 l/m 2,2 km/h N-NW 11,50 h 3,4 UV-I 432 W/m 8,0 km/h
20.07.2013 17,2 C 85 % 1020,9 hPa 0,0 l/m 0,4 km/h N-NO 3,92 h 2,0 UV-I 224 W/m 4,0 km/h
21.07.2013 21,3 C 63 % 1019,8 hPa 0,0 l/m 1,9 km/h SO 12,92 h 3,6 UV-I 463 W/m 7,6 km/h
22.07.2013 24,7 C 54 % 1015,5 hPa 0,0 l/m 0,1 km/h N-NO 12,83 h 3,4 UV-I 459 W/m 1,2 km/h
23.07.2013 22,3 C 67 % 1012,0 hPa 0,0 l/m 0,1 km/h S-SO 9,67 h 3,3 UV-I 383 W/m 1,6 km/h
24.07.2013 20,3 C 85 % 1013,4 hPa 0,2 l/m 1,0 km/h W 5,08 h 2,1 UV-I 252 W/m 4,4 km/h
25.07.2013 20,6 C 88 % 1014,5 hPa 1,2 l/m 2,5 km/h S-SO 6,67 h 2,8 UV-I 313 W/m 5,2 km/h
26.07.2013 20,5 C 90 % 1013,4 hPa 1,6 l/m 0,7 km/h S-SO 5,50 h 2,4 UV-I 233 W/m 2,4 km/h
27.07.2013 24,5 C 81 % 1007,3 hPa 0,0 l/m 3,0 km/h SO 9,92 h 2,7 UV-I 355 W/m 6,8 km/h
28.07.2013 21,0 C 85 % 1010,8 hPa 0,6 l/m 0,9 km/h S 3,83 h 2,2 UV-I 216 W/m 5,2 km/h
29.07.2013 18,5 C 91 % 1013,6 hPa 6,4 l/m 0,1 km/h S 2,17 h 2,2 UV-I 185 W/m 1,2 km/h
30.07.2013 16,8 C 84 % 1015,8 hPa 0,6 l/m 0,4 km/h S 4,58 h 2,8 UV-I 276 W/m 4,8 km/h
31.07.2013 18,0 C 89 % 1016,9 hPa 7,0 l/m 0,9 km/h S 2,00 h 2,0 UV-I 179 W/m 5,6 km/h
Min-Datum 13.07.13 22.07.13 28.07.13 11 Tage 01.07.13 - - - - 01.07.13
Min-Zeit 04:40 14:45 01:35 - 01:00 - - - - 01:00
Minimum 6,8 C 37 % 1004,1 hPa - 0,0 km/h - - - - 0,0 km/h
Max-Datum 23.07.13 15.07.13 08.07.13 31.07.13 23.07.13 - 07.07.13 01.07.13 04.07.13 23.07.13
Max-Zeit 16:45 08:20 09:30 05:55 19:10 - 20:05 12:40 13:45 19:10
Maximum 32,3 C 99 % 1030,7 hPa 7,0 l/m 26,9 km/h
S-SO
- 12,92 h 7,6 UV-I 1090 W/m 41,8 km/h
SO
Durchschnitt 18,7 C 79 % 1019,0 hPa #21,4 l/m 1,3 km/h N-NO #223:49 h 2,7 UV-I 323 W/m 5,1 km/h

Durchschnitt Minimum Temp.12,7 C
Durchschnitt Maximum Temp.24,6 C